sensor_id;sensor_type;location;lat;lon;timestamp;temperature;humidity
52125;DHT22;38119;52.710;6.398;2023-04-21T00:00:25;10.10;99.90
52125;DHT22;38119;52.710;6.398;2023-04-21T00:02:51;10.10;99.90
52125;DHT22;38119;52.710;6.398;2023-04-21T00:05:17;10.10;99.90
52125;DHT22;38119;52.710;6.398;2023-04-21T00:07:45;10.00;99.90
52125;DHT22;38119;52.710;6.398;2023-04-21T00:10:11;10.00;99.90
52125;DHT22;38119;52.710;6.398;2023-04-21T00:12:37;10.00;99.90
52125;DHT22;38119;52.710;6.398;2023-04-21T00:15:03;10.00;99.90
52125;DHT22;38119;52.710;6.398;2023-04-21T00:17:29;10.00;99.90
52125;DHT22;38119;52.710;6.398;2023-04-21T00:19:55;10.00;99.90
52125;DHT22;38119;52.710;6.398;2023-04-21T00:22:21;10.00;99.90
52125;DHT22;38119;52.710;6.398;2023-04-21T00:24:46;10.00;99.90
52125;DHT22;38119;52.710;6.398;2023-04-21T00:27:12;9.90;99.90
52125;DHT22;38119;52.710;6.398;2023-04-21T00:29:39;9.90;99.90
52125;DHT22;38119;52.710;6.398;2023-04-21T00:32:06;9.90;99.90
52125;DHT22;38119;52.710;6.398;2023-04-21T00:34:35;9.90;99.90
52125;DHT22;38119;52.710;6.398;2023-04-21T00:37:01;10.50;99.90
52125;DHT22;38119;52.710;6.398;2023-04-21T00:39:27;9.80;99.90
52125;DHT22;38119;52.710;6.398;2023-04-21T00:41:53;10.70;99.90
52125;DHT22;38119;52.710;6.398;2023-04-21T00:44:19;9.80;99.90
52125;DHT22;38119;52.710;6.398;2023-04-21T00:46:44;9.80;99.90
52125;DHT22;38119;52.710;6.398;2023-04-21T00:49:10;9.70;99.90
52125;DHT22;38119;52.710;6.398;2023-04-21T00:51:37;9.70;99.90
52125;DHT22;38119;52.710;6.398;2023-04-21T00:54:05;9.70;99.90
52125;DHT22;38119;52.710;6.398;2023-04-21T00:56:33;9.70;99.90
52125;DHT22;38119;52.710;6.398;2023-04-21T00:58:59;9.60;99.90
52125;DHT22;38119;52.710;6.398;2023-04-21T01:01:26;9.60;99.90
52125;DHT22;38119;52.710;6.398;2023-04-21T01:03:56;9.60;99.90
52125;DHT22;38119;52.710;6.398;2023-04-21T01:06:23;9.60;99.90
52125;DHT22;38119;52.710;6.398;2023-04-21T01:08:51;9.60;99.90
52125;DHT22;38119;52.710;6.398;2023-04-21T01:11:17;9.60;99.90
52125;DHT22;38119;52.710;6.398;2023-04-21T01:13:43;9.60;99.90
52125;DHT22;38119;52.710;6.398;2023-04-21T01:16:15;9.60;99.90
52125;DHT22;38119;52.710;6.398;2023-04-21T01:18:41;9.50;99.90
52125;DHT22;38119;52.710;6.398;2023-04-21T01:21:06;9.50;99.90
52125;DHT22;38119;52.710;6.398;2023-04-21T01:23:32;9.50;99.90
52125;DHT22;38119;52.710;6.398;2023-04-21T01:25:58;9.50;99.90
52125;DHT22;38119;52.710;6.398;2023-04-21T01:28:24;9.50;99.90
52125;DHT22;38119;52.710;6.398;2023-04-21T01:30:50;9.50;99.90
52125;DHT22;38119;52.710;6.398;2023-04-21T01:33:17;9.50;99.90
52125;DHT22;38119;52.710;6.398;2023-04-21T01:35:43;9.40;99.90
52125;DHT22;38119;52.710;6.398;2023-04-21T01:38:09;9.40;99.90
52125;DHT22;38119;52.710;6.398;2023-04-21T01:40:35;9.40;99.90
52125;DHT22;38119;52.710;6.398;2023-04-21T01:43:01;9.60;99.90
52125;DHT22;38119;52.710;6.398;2023-04-21T01:45:29;9.40;99.90
52125;DHT22;38119;52.710;6.398;2023-04-21T01:47:57;9.40;99.90
52125;DHT22;38119;52.710;6.398;2023-04-21T01:50:23;9.40;99.90
52125;DHT22;38119;52.710;6.398;2023-04-21T01:52:49;9.50;99.90
52125;DHT22;38119;52.710;6.398;2023-04-21T01:55:14;9.50;99.90
52125;DHT22;38119;52.710;6.398;2023-04-21T01:57:40;9.40;99.90
52125;DHT22;38119;52.710;6.398;2023-04-21T02:00:06;9.40;99.90
52125;DHT22;38119;52.710;6.398;2023-04-21T02:02:33;9.40;99.90
52125;DHT22;38119;52.710;6.398;2023-04-21T02:04:59;9.50;99.90
52125;DHT22;38119;52.710;6.398;2023-04-21T02:07:24;9.40;99.90
52125;DHT22;38119;52.710;6.398;2023-04-21T02:09:50;9.40;99.90
52125;DHT22;38119;52.710;6.398;2023-04-21T02:12:16;9.40;99.90
52125;DHT22;38119;52.710;6.398;2023-04-21T02:14:41;9.40;99.90
52125;DHT22;38119;52.710;6.398;2023-04-21T02:17:07;9.50;99.90
52125;DHT22;38119;52.710;6.398;2023-04-21T02:19:33;9.50;99.90
52125;DHT22;38119;52.710;6.398;2023-04-21T02:21:59;9.50;99.90
52125;DHT22;38119;52.710;6.398;2023-04-21T02:24:24;9.50;99.90
52125;DHT22;38119;52.710;6.398;2023-04-21T02:26:50;9.50;99.90
52125;DHT22;38119;52.710;6.398;2023-04-21T02:29:16;9.50;99.90
52125;DHT22;38119;52.710;6.398;2023-04-21T02:31:41;9.50;99.90
52125;DHT22;38119;52.710;6.398;2023-04-21T02:34:07;9.50;99.90
52125;DHT22;38119;52.710;6.398;2023-04-21T02:36:33;9.50;99.90
52125;DHT22;38119;52.710;6.398;2023-04-21T02:38:58;9.50;99.90
52125;DHT22;38119;52.710;6.398;2023-04-21T02:41:24;9.50;99.90
52125;DHT22;38119;52.710;6.398;2023-04-21T02:43:49;9.50;99.90
52125;DHT22;38119;52.710;6.398;2023-04-21T02:46:15;9.50;99.90
52125;DHT22;38119;52.710;6.398;2023-04-21T02:48:41;9.50;99.90
52125;DHT22;38119;52.710;6.398;2023-04-21T02:51:15;9.50;99.90
52125;DHT22;38119;52.710;6.398;2023-04-21T02:53:42;9.50;99.90
52125;DHT22;38119;52.710;6.398;2023-04-21T02:56:09;9.50;99.90
52125;DHT22;38119;52.710;6.398;2023-04-21T02:58:35;9.50;99.90
52125;DHT22;38119;52.710;6.398;2023-04-21T03:01:01;9.50;99.90
52125;DHT22;38119;52.710;6.398;2023-04-21T03:03:28;9.50;99.90
52125;DHT22;38119;52.710;6.398;2023-04-21T03:05:58;9.40;99.90
52125;DHT22;38119;52.710;6.398;2023-04-21T03:08:24;9.50;99.90
52125;DHT22;38119;52.710;6.398;2023-04-21T03:10:50;9.50;99.90
52125;DHT22;38119;52.710;6.398;2023-04-21T03:13:16;9.50;99.90
52125;DHT22;38119;52.710;6.398;2023-04-21T03:15:41;9.50;99.90
52125;DHT22;38119;52.710;6.398;2023-04-21T03:18:07;9.50;99.90
52125;DHT22;38119;52.710;6.398;2023-04-21T03:20:33;9.50;99.90
52125;DHT22;38119;52.710;6.398;2023-04-21T03:22:58;9.60;99.90
52125;DHT22;38119;52.710;6.398;2023-04-21T03:25:24;9.60;99.90
52125;DHT22;38119;52.710;6.398;2023-04-21T03:27:52;9.60;99.90
52125;DHT22;38119;52.710;6.398;2023-04-21T03:30:18;9.60;99.90
52125;DHT22;38119;52.710;6.398;2023-04-21T03:32:43;9.60;99.90
52125;DHT22;38119;52.710;6.398;2023-04-21T03:35:09;9.60;99.90
52125;DHT22;38119;52.710;6.398;2023-04-21T03:37:34;9.60;99.90
52125;DHT22;38119;52.710;6.398;2023-04-21T03:40:00;10.50;99.90
52125;DHT22;38119;52.710;6.398;2023-04-21T03:42:26;9.70;99.90
52125;DHT22;38119;52.710;6.398;2023-04-21T03:44:54;9.70;99.90
52125;DHT22;38119;52.710;6.398;2023-04-21T03:47:19;9.70;99.90
52125;DHT22;38119;52.710;6.398;2023-04-21T03:49:45;9.70;99.90
52125;DHT22;38119;52.710;6.398;2023-04-21T03:52:10;9.80;99.90
52125;DHT22;38119;52.710;6.398;2023-04-21T03:54:36;9.80;99.90
52125;DHT22;38119;52.710;6.398;2023-04-21T03:57:02;9.80;99.90
52125;DHT22;38119;52.710;6.398;2023-04-21T03:59:27;9.80;99.90
52125;DHT22;38119;52.710;6.398;2023-04-21T04:01:53;9.80;99.90
52125;DHT22;38119;52.710;6.398;2023-04-21T04:04:19;9.80;99.90
52125;DHT22;38119;52.710;6.398;2023-04-21T04:06:45;9.80;99.90
52125;DHT22;38119;52.710;6.398;2023-04-21T04:09:11;10.70;99.90
52125;DHT22;38119;52.710;6.398;2023-04-21T04:11:38;9.90;99.90
52125;DHT22;38119;52.710;6.398;2023-04-21T04:14:04;9.80;99.90
52125;DHT22;38119;52.710;6.398;2023-04-21T04:16:30;10.80;99.90
52125;DHT22;38119;52.710;6.398;2023-04-21T04:18:55;9.80;99.90
52125;DHT22;38119;52.710;6.398;2023-04-21T04:21:21;9.90;99.90
52125;DHT22;38119;52.710;6.398;2023-04-21T04:23:49;9.90;99.90
52125;DHT22;38119;52.710;6.398;2023-04-21T04:26:16;9.80;99.90
52125;DHT22;38119;52.710;6.398;2023-04-21T04:28:41;9.90;99.90
52125;DHT22;38119;52.710;6.398;2023-04-21T04:31:07;9.90;99.90
52125;DHT22;38119;52.710;6.398;2023-04-21T04:33:32;9.90;99.90
52125;DHT22;38119;52.710;6.398;2023-04-21T04:35:58;9.90;99.90
52125;DHT22;38119;52.710;6.398;2023-04-21T04:38:24;9.90;99.90
52125;DHT22;38119;52.710;6.398;2023-04-21T04:40:54;9.90;99.90
52125;DHT22;38119;52.710;6.398;2023-04-21T04:43:22;9.90;99.90
52125;DHT22;38119;52.710;6.398;2023-04-21T04:45:47;9.80;99.90
52125;DHT22;38119;52.710;6.398;2023-04-21T04:48:13;9.80;99.90
52125;DHT22;38119;52.710;6.398;2023-04-21T04:50:39;9.80;99.90
52125;DHT22;38119;52.710;6.398;2023-04-21T04:53:04;9.80;99.90
52125;DHT22;38119;52.710;6.398;2023-04-21T04:55:30;9.80;99.90
52125;DHT22;38119;52.710;6.398;2023-04-21T04:57:56;9.80;99.90
52125;DHT22;38119;52.710;6.398;2023-04-21T05:00:22;9.80;99.90
52125;DHT22;38119;52.710;6.398;2023-04-21T05:02:48;9.80;99.90
52125;DHT22;38119;52.710;6.398;2023-04-21T05:05:15;9.80;99.90
52125;DHT22;38119;52.710;6.398;2023-04-21T05:07:42;9.80;99.90
52125;DHT22;38119;52.710;6.398;2023-04-21T05:10:07;9.80;99.90
52125;DHT22;38119;52.710;6.398;2023-04-21T05:12:33;9.80;99.90
52125;DHT22;38119;52.710;6.398;2023-04-21T05:14:59;9.80;99.90
52125;DHT22;38119;52.710;6.398;2023-04-21T05:17:24;9.80;99.90
52125;DHT22;38119;52.710;6.398;2023-04-21T05:19:50;9.80;99.90
52125;DHT22;38119;52.710;6.398;2023-04-21T05:22:16;9.80;99.90
52125;DHT22;38119;52.710;6.398;2023-04-21T05:24:42;10.30;99.90
52125;DHT22;38119;52.710;6.398;2023-04-21T05:27:08;9.90;99.90
52125;DHT22;38119;52.710;6.398;2023-04-21T05:29:34;9.80;99.90
52125;DHT22;38119;52.710;6.398;2023-04-21T05:32:01;9.90;99.90
52125;DHT22;38119;52.710;6.398;2023-04-21T05:34:26;9.70;99.90
52125;DHT22;38119;52.710;6.398;2023-04-21T05:36:52;9.90;99.90
52125;DHT22;38119;52.710;6.398;2023-04-21T05:39:19;9.90;99.90
52125;DHT22;38119;52.710;6.398;2023-04-21T05:41:45;9.90;99.90
52125;DHT22;38119;52.710;6.398;2023-04-21T05:44:11;9.90;99.90
52125;DHT22;38119;52.710;6.398;2023-04-21T05:46:37;9.90;99.90
52125;DHT22;38119;52.710;6.398;2023-04-21T05:49:03;10.00;99.90
52125;DHT22;38119;52.710;6.398;2023-04-21T05:51:28;10.00;99.90
52125;DHT22;38119;52.710;6.398;2023-04-21T05:53:54;10.00;99.90
52125;DHT22;38119;52.710;6.398;2023-04-21T05:56:20;10.00;99.90
52125;DHT22;38119;52.710;6.398;2023-04-21T05:58:45;10.10;99.90
52125;DHT22;38119;52.710;6.398;2023-04-21T06:01:11;10.10;99.90
52125;DHT22;38119;52.710;6.398;2023-04-21T06:03:37;10.10;99.90
52125;DHT22;38119;52.710;6.398;2023-04-21T06:06:04;10.10;99.90
52125;DHT22;38119;52.710;6.398;2023-04-21T06:08:30;10.10;99.90
52125;DHT22;38119;52.710;6.398;2023-04-21T06:10:56;10.10;99.90
52125;DHT22;38119;52.710;6.398;2023-04-21T06:13:23;10.20;99.90
52125;DHT22;38119;52.710;6.398;2023-04-21T06:15:48;10.20;99.90
52125;DHT22;38119;52.710;6.398;2023-04-21T06:18:14;10.20;99.90
52125;DHT22;38119;52.710;6.398;2023-04-21T06:20:41;10.30;99.90
52125;DHT22;38119;52.710;6.398;2023-04-21T06:23:07;10.30;99.90
52125;DHT22;38119;52.710;6.398;2023-04-21T06:25:34;10.30;99.90
52125;DHT22;38119;52.710;6.398;2023-04-21T06:28:00;10.40;99.90
52125;DHT22;38119;52.710;6.398;2023-04-21T06:30:27;10.40;99.90
52125;DHT22;38119;52.710;6.398;2023-04-21T06:32:52;10.40;99.90
52125;DHT22;38119;52.710;6.398;2023-04-21T06:35:18;10.50;99.90
52125;DHT22;38119;52.710;6.398;2023-04-21T06:37:44;10.50;99.90
52125;DHT22;38119;52.710;6.398;2023-04-21T06:40:11;10.60;99.90
52125;DHT22;38119;52.710;6.398;2023-04-21T06:42:40;10.60;99.90
52125;DHT22;38119;52.710;6.398;2023-04-21T06:45:06;10.60;99.90
52125;DHT22;38119;52.710;6.398;2023-04-21T06:47:32;10.70;99.90
52125;DHT22;38119;52.710;6.398;2023-04-21T06:49:57;10.70;99.90
52125;DHT22;38119;52.710;6.398;2023-04-21T06:52:23;10.70;99.90
52125;DHT22;38119;52.710;6.398;2023-04-21T06:54:49;10.70;99.90
52125;DHT22;38119;52.710;6.398;2023-04-21T06:57:14;10.80;99.90
52125;DHT22;38119;52.710;6.398;2023-04-21T06:59:44;10.80;99.90
52125;DHT22;38119;52.710;6.398;2023-04-21T07:02:10;10.80;99.90
52125;DHT22;38119;52.710;6.398;2023-04-21T07:04:36;10.80;99.90
52125;DHT22;38119;52.710;6.398;2023-04-21T07:07:02;10.90;99.90
52125;DHT22;38119;52.710;6.398;2023-04-21T07:09:28;10.90;99.90
52125;DHT22;38119;52.710;6.398;2023-04-21T07:11:54;11.00;99.90
52125;DHT22;38119;52.710;6.398;2023-04-21T07:14:23;11.00;99.90
52125;DHT22;38119;52.710;6.398;2023-04-21T07:16:49;11.50;99.90
52125;DHT22;38119;52.710;6.398;2023-04-21T07:19:15;11.10;99.90
52125;DHT22;38119;52.710;6.398;2023-04-21T07:21:40;11.20;99.90
52125;DHT22;38119;52.710;6.398;2023-04-21T07:24:08;11.20;99.90
52125;DHT22;38119;52.710;6.398;2023-04-21T07:26:33;11.30;99.90
52125;DHT22;38119;52.710;6.398;2023-04-21T07:29:01;11.30;99.90
52125;DHT22;38119;52.710;6.398;2023-04-21T07:31:27;11.40;99.90
52125;DHT22;38119;52.710;6.398;2023-04-21T07:33:52;11.40;99.90
52125;DHT22;38119;52.710;6.398;2023-04-21T07:36:18;11.50;99.90
52125;DHT22;38119;52.710;6.398;2023-04-21T07:38:44;11.60;99.90
52125;DHT22;38119;52.710;6.398;2023-04-21T07:41:10;11.70;99.90
52125;DHT22;38119;52.710;6.398;2023-04-21T07:43:37;11.80;99.90
52125;DHT22;38119;52.710;6.398;2023-04-21T07:46:03;11.80;99.90
52125;DHT22;38119;52.710;6.398;2023-04-21T07:48:29;11.90;99.90
52125;DHT22;38119;52.710;6.398;2023-04-21T07:50:54;12.30;99.90
52125;DHT22;38119;52.710;6.398;2023-04-21T07:53:20;12.00;99.90
52125;DHT22;38119;52.710;6.398;2023-04-21T07:55:45;12.00;99.90
52125;DHT22;38119;52.710;6.398;2023-04-21T07:58:11;12.10;99.90
52125;DHT22;38119;52.710;6.398;2023-04-21T08:00:38;12.20;99.90
52125;DHT22;38119;52.710;6.398;2023-04-21T08:03:04;12.30;99.90
52125;DHT22;38119;52.710;6.398;2023-04-21T08:05:30;12.30;99.90
52125;DHT22;38119;52.710;6.398;2023-04-21T08:07:56;12.40;99.90
52125;DHT22;38119;52.710;6.398;2023-04-21T08:10:22;12.50;99.90
52125;DHT22;38119;52.710;6.398;2023-04-21T08:12:47;12.90;99.90
52125;DHT22;38119;52.710;6.398;2023-04-21T08:15:15;12.70;99.90
52125;DHT22;38119;52.710;6.398;2023-04-21T08:17:43;12.70;99.90
52125;DHT22;38119;52.710;6.398;2023-04-21T08:20:09;12.80;99.90
52125;DHT22;38119;52.710;6.398;2023-04-21T08:22:37;12.80;99.90
52125;DHT22;38119;52.710;6.398;2023-04-21T08:25:04;12.80;99.90
52125;DHT22;38119;52.710;6.398;2023-04-21T08:27:30;12.90;99.90
52125;DHT22;38119;52.710;6.398;2023-04-21T08:29:57;13.00;99.90
52125;DHT22;38119;52.710;6.398;2023-04-21T08:32:22;13.10;99.90
52125;DHT22;38119;52.710;6.398;2023-04-21T08:34:51;13.20;99.90
52125;DHT22;38119;52.710;6.398;2023-04-21T08:37:18;13.30;99.90
52125;DHT22;38119;52.710;6.398;2023-04-21T08:39:46;13.50;99.90
52125;DHT22;38119;52.710;6.398;2023-04-21T08:42:16;13.60;99.90
52125;DHT22;38119;52.710;6.398;2023-04-21T08:44:42;13.90;99.90
52125;DHT22;38119;52.710;6.398;2023-04-21T08:47:12;14.00;99.90
52125;DHT22;38119;52.710;6.398;2023-04-21T08:49:39;14.20;99.90
52125;DHT22;38119;52.710;6.398;2023-04-21T08:52:05;14.50;99.90
52125;DHT22;38119;52.710;6.398;2023-04-21T08:54:31;14.60;99.90
52125;DHT22;38119;52.710;6.398;2023-04-21T08:56:57;14.70;99.90
52125;DHT22;38119;52.710;6.398;2023-04-21T08:59:23;15.10;99.90
52125;DHT22;38119;52.710;6.398;2023-04-21T09:02:12;14.80;99.90
52125;DHT22;38119;52.710;6.398;2023-04-21T09:04:47;14.80;99.90
52125;DHT22;38119;52.710;6.398;2023-04-21T09:07:35;14.70;99.90
52125;DHT22;38119;52.710;6.398;2023-04-21T09:10:03;14.70;99.90
52125;DHT22;38119;52.710;6.398;2023-04-21T09:12:29;14.70;99.90
52125;DHT22;38119;52.710;6.398;2023-04-21T09:14:55;14.70;99.90
52125;DHT22;38119;52.710;6.398;2023-04-21T09:17:29;14.80;99.90
52125;DHT22;38119;52.710;6.398;2023-04-21T09:19:57;14.90;99.90
52125;DHT22;38119;52.710;6.398;2023-04-21T09:22:36;15.00;99.90
52125;DHT22;38119;52.710;6.398;2023-04-21T09:25:02;15.10;99.90
52125;DHT22;38119;52.710;6.398;2023-04-21T09:27:28;15.20;99.90
52125;DHT22;38119;52.710;6.398;2023-04-21T09:29:54;15.30;99.90
52125;DHT22;38119;52.710;6.398;2023-04-21T09:32:19;15.20;99.90
52125;DHT22;38119;52.710;6.398;2023-04-21T09:34:46;15.20;99.90
52125;DHT22;38119;52.710;6.398;2023-04-21T09:37:12;15.30;99.90
52125;DHT22;38119;52.710;6.398;2023-04-21T09:39:38;15.30;99.90
52125;DHT22;38119;52.710;6.398;2023-04-21T09:42:04;15.40;99.90
52125;DHT22;38119;52.710;6.398;2023-04-21T09:44:30;15.40;99.90
52125;DHT22;38119;52.710;6.398;2023-04-21T09:47:00;15.80;99.90
52125;DHT22;38119;52.710;6.398;2023-04-21T09:49:30;15.70;99.90
52125;DHT22;38119;52.710;6.398;2023-04-21T09:52:00;15.80;99.90
52125;DHT22;38119;52.710;6.398;2023-04-21T09:54:33;16.20;99.90
52125;DHT22;38119;52.710;6.398;2023-04-21T09:57:00;16.40;99.90
52125;DHT22;38119;52.710;6.398;2023-04-21T09:59:33;16.40;99.90
52125;DHT22;38119;52.710;6.398;2023-04-21T10:01:59;16.30;99.90
52125;DHT22;38119;52.710;6.398;2023-04-21T10:04:30;16.30;99.90
52125;DHT22;38119;52.710;6.398;2023-04-21T10:06:58;16.20;99.90
52125;DHT22;38119;52.710;6.398;2023-04-21T10:09:29;16.20;99.90
52125;DHT22;38119;52.710;6.398;2023-04-21T10:11:55;16.30;99.90
52125;DHT22;38119;52.710;6.398;2023-04-21T10:14:24;16.30;99.90
52125;DHT22;38119;52.710;6.398;2023-04-21T10:17:07;16.30;99.90
52125;DHT22;38119;52.710;6.398;2023-04-21T10:19:35;16.30;99.90
52125;DHT22;38119;52.710;6.398;2023-04-21T10:22:07;16.30;99.90
52125;DHT22;38119;52.710;6.398;2023-04-21T10:24:41;16.30;99.90
52125;DHT22;38119;52.710;6.398;2023-04-21T10:27:11;16.30;99.90
52125;DHT22;38119;52.710;6.398;2023-04-21T10:29:37;16.20;99.90
52125;DHT22;38119;52.710;6.398;2023-04-21T10:32:03;16.10;99.90
52125;DHT22;38119;52.710;6.398;2023-04-21T10:34:37;16.00;99.90
52125;DHT22;38119;52.710;6.398;2023-04-21T10:39:51;16.00;99.90
52125;DHT22;38119;52.710;6.398;2023-04-21T10:42:26;15.90;99.90
52125;DHT22;38119;52.710;6.398;2023-04-21T10:47:28;15.90;99.90
52125;DHT22;38119;52.710;6.398;2023-04-21T10:49:57;15.90;99.90
52125;DHT22;38119;52.710;6.398;2023-04-21T10:52:33;15.80;99.90
52125;DHT22;38119;52.710;6.398;2023-04-21T10:57:24;15.80;99.90
52125;DHT22;38119;52.710;6.398;2023-04-21T10:59:51;15.80;99.90
52125;DHT22;38119;52.710;6.398;2023-04-21T11:02:18;15.70;99.90
52125;DHT22;38119;52.710;6.398;2023-04-21T11:04:43;15.70;99.90
52125;DHT22;38119;52.710;6.398;2023-04-21T11:07:12;15.80;99.90
52125;DHT22;38119;52.710;6.398;2023-04-21T11:09:39;15.80;99.90
52125;DHT22;38119;52.710;6.398;2023-04-21T11:12:10;15.90;99.90
52125;DHT22;38119;52.710;6.398;2023-04-21T11:14:37;16.00;99.90
52125;DHT22;38119;52.710;6.398;2023-04-21T11:17:09;16.50;99.90
52125;DHT22;38119;52.710;6.398;2023-04-21T11:19:35;16.10;99.90
52125;DHT22;38119;52.710;6.398;2023-04-21T11:22:01;16.20;99.90
52125;DHT22;38119;52.710;6.398;2023-04-21T11:24:27;16.20;99.90
52125;DHT22;38119;52.710;6.398;2023-04-21T11:26:53;16.30;99.90
52125;DHT22;38119;52.710;6.398;2023-04-21T11:29:19;16.30;99.90
52125;DHT22;38119;52.710;6.398;2023-04-21T11:31:45;16.30;99.90
52125;DHT22;38119;52.710;6.398;2023-04-21T11:34:15;16.30;99.90
52125;DHT22;38119;52.710;6.398;2023-04-21T11:36:44;16.40;99.90
52125;DHT22;38119;52.710;6.398;2023-04-21T11:39:12;16.40;99.90
52125;DHT22;38119;52.710;6.398;2023-04-21T11:41:50;16.50;99.90
52125;DHT22;38119;52.710;6.398;2023-04-21T11:49:47;16.60;99.90
52125;DHT22;38119;52.710;6.398;2023-04-21T11:52:28;16.60;99.90
52125;DHT22;38119;52.710;6.398;2023-04-21T11:55:00;16.50;99.90
52125;DHT22;38119;52.710;6.398;2023-04-21T11:57:27;16.60;99.90
52125;DHT22;38119;52.710;6.398;2023-04-21T12:00:01;16.60;99.90
52125;DHT22;38119;52.710;6.398;2023-04-21T12:02:30;16.60;99.90
52125;DHT22;38119;52.710;6.398;2023-04-21T12:05:05;16.60;99.90
52125;DHT22;38119;52.710;6.398;2023-04-21T12:07:33;16.60;99.90
52125;DHT22;38119;52.710;6.398;2023-04-21T12:10:00;16.70;99.90
52125;DHT22;38119;52.710;6.398;2023-04-21T12:12:28;16.70;99.90
52125;DHT22;38119;52.710;6.398;2023-04-21T12:14:53;16.70;99.90
52125;DHT22;38119;52.710;6.398;2023-04-21T12:17:19;16.70;99.90
52125;DHT22;38119;52.710;6.398;2023-04-21T12:19:45;16.80;99.90
52125;DHT22;38119;52.710;6.398;2023-04-21T12:22:16;16.90;99.90
52125;DHT22;38119;52.710;6.398;2023-04-21T12:24:47;17.10;99.90
52125;DHT22;38119;52.710;6.398;2023-04-21T12:27:12;17.20;99.90
52125;DHT22;38119;52.710;6.398;2023-04-21T12:29:38;17.40;99.90
52125;DHT22;38119;52.710;6.398;2023-04-21T12:32:05;17.60;99.90
52125;DHT22;38119;52.710;6.398;2023-04-21T12:34:30;17.70;99.90
52125;DHT22;38119;52.710;6.398;2023-04-21T12:36:56;17.70;99.90
52125;DHT22;38119;52.710;6.398;2023-04-21T12:39:22;17.70;99.90
52125;DHT22;38119;52.710;6.398;2023-04-21T12:41:48;17.70;99.90
52125;DHT22;38119;52.710;6.398;2023-04-21T12:44:14;18.10;99.90
52125;DHT22;38119;52.710;6.398;2023-04-21T12:46:42;17.80;99.90
52125;DHT22;38119;52.710;6.398;2023-04-21T12:49:09;17.80;99.90
52125;DHT22;38119;52.710;6.398;2023-04-21T12:51:37;17.90;99.90
52125;DHT22;38119;52.710;6.398;2023-04-21T12:54:03;17.90;99.90
52125;DHT22;38119;52.710;6.398;2023-04-21T12:56:29;18.00;99.90
52125;DHT22;38119;52.710;6.398;2023-04-21T12:58:56;18.20;99.90
52125;DHT22;38119;52.710;6.398;2023-04-21T13:01:23;18.30;99.90
52125;DHT22;38119;52.710;6.398;2023-04-21T13:03:49;18.90;99.90
52125;DHT22;38119;52.710;6.398;2023-04-21T13:06:14;18.90;99.90
52125;DHT22;38119;52.710;6.398;2023-04-21T13:08:41;19.20;99.90
52125;DHT22;38119;52.710;6.398;2023-04-21T13:11:06;19.50;99.90
52125;DHT22;38119;52.710;6.398;2023-04-21T13:13:32;19.50;99.90
52125;DHT22;38119;52.710;6.398;2023-04-21T13:15:57;19.40;99.90
52125;DHT22;38119;52.710;6.398;2023-04-21T13:18:23;19.20;99.90
52125;DHT22;38119;52.710;6.398;2023-04-21T13:20:48;19.00;99.90
52125;DHT22;38119;52.710;6.398;2023-04-21T13:23:14;18.90;99.90
52125;DHT22;38119;52.710;6.398;2023-04-21T13:25:40;18.70;99.90
52125;DHT22;38119;52.710;6.398;2023-04-21T13:28:06;18.50;99.90
52125;DHT22;38119;52.710;6.398;2023-04-21T13:30:32;18.40;99.90
52125;DHT22;38119;52.710;6.398;2023-04-21T13:32:58;18.30;99.90
52125;DHT22;38119;52.710;6.398;2023-04-21T13:35:26;18.20;99.90
52125;DHT22;38119;52.710;6.398;2023-04-21T13:37:52;18.00;99.90
52125;DHT22;38119;52.710;6.398;2023-04-21T13:40:18;18.00;99.90
52125;DHT22;38119;52.710;6.398;2023-04-21T13:42:44;17.90;99.90
52125;DHT22;38119;52.710;6.398;2023-04-21T13:45:10;17.80;99.90
52125;DHT22;38119;52.710;6.398;2023-04-21T13:47:36;17.80;99.90
52125;DHT22;38119;52.710;6.398;2023-04-21T13:50:02;17.90;99.90
52125;DHT22;38119;52.710;6.398;2023-04-21T13:52:29;18.00;99.90
52125;DHT22;38119;52.710;6.398;2023-04-21T13:54:55;18.30;99.90
52125;DHT22;38119;52.710;6.398;2023-04-21T13:57:21;18.20;99.90
52125;DHT22;38119;52.710;6.398;2023-04-21T13:59:46;18.20;99.90
52125;DHT22;38119;52.710;6.398;2023-04-21T14:02:12;18.30;99.90
52125;DHT22;38119;52.710;6.398;2023-04-21T14:04:38;18.30;99.90
52125;DHT22;38119;52.710;6.398;2023-04-21T14:07:07;18.70;99.90
52125;DHT22;38119;52.710;6.398;2023-04-21T14:09:37;18.40;99.90
52125;DHT22;38119;52.710;6.398;2023-04-21T14:12:03;18.30;99.90
52125;DHT22;38119;52.710;6.398;2023-04-21T14:14:29;18.20;99.90
52125;DHT22;38119;52.710;6.398;2023-04-21T14:16:54;18.10;99.90
52125;DHT22;38119;52.710;6.398;2023-04-21T14:19:20;18.10;99.90
52125;DHT22;38119;52.710;6.398;2023-04-21T14:21:49;18.00;99.90
52125;DHT22;38119;52.710;6.398;2023-04-21T14:24:15;18.00;99.90
52125;DHT22;38119;52.710;6.398;2023-04-21T14:26:40;18.20;99.90
52125;DHT22;38119;52.710;6.398;2023-04-21T14:29:06;17.90;99.90
52125;DHT22;38119;52.710;6.398;2023-04-21T14:31:33;17.80;99.90
52125;DHT22;38119;52.710;6.398;2023-04-21T14:33:59;17.80;99.90
52125;DHT22;38119;52.710;6.398;2023-04-21T14:36:25;17.80;99.90
52125;DHT22;38119;52.710;6.398;2023-04-21T14:38:52;17.70;99.90
52125;DHT22;38119;52.710;6.398;2023-04-21T14:41:17;17.70;99.90
52125;DHT22;38119;52.710;6.398;2023-04-21T14:43:43;17.70;99.90
52125;DHT22;38119;52.710;6.398;2023-04-21T14:46:08;17.70;99.90
52125;DHT22;38119;52.710;6.398;2023-04-21T14:48:34;17.70;99.90
52125;DHT22;38119;52.710;6.398;2023-04-21T14:51:00;17.70;99.90
52125;DHT22;38119;52.710;6.398;2023-04-21T14:53:26;17.50;99.90
52125;DHT22;38119;52.710;6.398;2023-04-21T14:55:51;17.80;99.90
52125;DHT22;38119;52.710;6.398;2023-04-21T14:58:17;17.80;99.90
52125;DHT22;38119;52.710;6.398;2023-04-21T15:00:42;17.80;99.90
52125;DHT22;38119;52.710;6.398;2023-04-21T15:03:08;17.80;99.90
52125;DHT22;38119;52.710;6.398;2023-04-21T15:05:34;17.80;99.90
52125;DHT22;38119;52.710;6.398;2023-04-21T15:08:01;17.80;99.90
52125;DHT22;38119;52.710;6.398;2023-04-21T15:10:26;17.90;99.90
52125;DHT22;38119;52.710;6.398;2023-04-21T15:12:54;17.90;99.90
52125;DHT22;38119;52.710;6.398;2023-04-21T15:15:23;17.90;99.80
52125;DHT22;38119;52.710;6.398;2023-04-21T15:17:48;18.00;99.40
52125;DHT22;38119;52.710;6.398;2023-04-21T15:20:14;18.00;99.30
52125;DHT22;38119;52.710;6.398;2023-04-21T15:22:39;17.90;99.30
52125;DHT22;38119;52.710;6.398;2023-04-21T15:25:06;18.00;99.20
52125;DHT22;38119;52.710;6.398;2023-04-21T15:27:35;18.00;99.10
52125;DHT22;38119;52.710;6.398;2023-04-21T15:30:02;18.00;98.90
52125;DHT22;38119;52.710;6.398;2023-04-21T15:32:29;17.90;98.90
52125;DHT22;38119;52.710;6.398;2023-04-21T15:34:59;17.90;98.80
52125;DHT22;38119;52.710;6.398;2023-04-21T15:37:25;17.80;98.60
52125;DHT22;38119;52.710;6.398;2023-04-21T15:39:51;17.70;98.70
52125;DHT22;38119;52.710;6.398;2023-04-21T15:42:17;17.70;98.90
52125;DHT22;38119;52.710;6.398;2023-04-21T15:44:43;17.60;99.00